Time;durP1;ratioP1;P1;durP2;ratioP2;P2;SDS_P1;SDS_P2;PMS_P1;PMS_P2;Temp;Humidity;BMP_temperature;BMP_pressure;BME280_temperature;BME280_humidity;BME280_pressure;Samples;Min_cycle;Max_cycle;Signal;HPM_P1;HPM_P2
2021/12/24 00:00:31;;;;;;;27.17;3.00;;;8.10;99.90;;;;;;4986773;28;20061;-70
2021/12/24 00:03:00;;;;;;;27.88;3.30;;;8.00;99.90;;;;;;4986273;28;20054;-73
2021/12/24 00:05:28;;;;;;;20.45;2.88;;;8.00;99.90;;;;;;4986439;28;20053;-71
2021/12/24 00:07:55;;;;;;;23.40;2.90;;;8.10;99.90;;;;;;4986489;28;20062;-71
2021/12/24 00:10:23;;;;;;;29.17;3.58;;;8.00;99.90;;;;;;4978035;28;20047;-71
2021/12/24 00:13:01;;;;;;;23.50;3.58;;;8.00;99.90;;;;;;4967295;28;20059;-71
2021/12/24 00:18:06;;;;;;;32.78;4.43;;;8.00;99.90;;;;;;4966769;28;20061;-73
2021/12/24 00:36:54;;;;;;;24.63;3.42;;;7.80;99.90;;;;;;4986992;28;20050;-71
2021/12/24 00:39:22;;;;;;;34.80;3.80;;;7.70;99.90;;;;;;4987228;28;20072;-74
2021/12/24 00:41:50;;;;;;;24.58;3.83;;;7.70;99.90;;;;;;4985377;28;20057;-72
2021/12/24 00:44:18;;;;;;;34.58;3.25;;;7.70;99.90;;;;;;4986141;28;20925;-72
2021/12/24 00:46:45;;;;;;;28.05;3.33;;;7.60;99.90;;;;;;4985522;28;20710;-70
2021/12/24 00:49:13;;;;;;;26.83;3.38;;;7.50;99.90;;;;;;4985830;28;20054;-71
2021/12/24 00:52:07;;;;;;;30.35;3.60;;;7.40;99.90;;;;;;4987164;28;20047;-74
2021/12/24 00:57:22;;;;;;;24.90;3.38;;;7.30;99.90;;;;;;4984686;28;20459;-72
2021/12/24 00:59:49;;;;;;;27.38;3.72;;;7.20;99.90;;;;;;4985813;28;20384;-73
2021/12/24 01:02:17;;;;;;;31.33;3.70;;;7.10;99.90;;;;;;4986321;28;20759;-71
2021/12/24 01:04:46;;;;;;;31.85;3.40;;;7.10;99.90;;;;;;4986760;28;20043;-72
2021/12/24 01:07:14;;;;;;;35.60;3.78;;;7.00;99.90;;;;;;4985185;28;20394;-71
2021/12/24 01:09:43;;;;;;;22.35;3.60;;;7.00;99.90;;;;;;4986573;28;20042;-71
2021/12/24 01:12:11;;;;;;;30.92;3.40;;;6.90;99.90;;;;;;5018276;28;20474;-72
2021/12/24 01:14:39;;;;;;;28.17;3.78;;;6.90;99.90;;;;;;5018086;28;20419;-73
2021/12/24 01:17:20;;;;;;;29.90;4.07;;;6.80;99.90;;;;;;4983516;28;20045;-71
2021/12/24 01:19:50;;;;;;;32.53;4.18;;;6.80;99.90;;;;;;4987039;28;20065;-73
2021/12/24 01:38:51;;;;;;;39.20;9.45;;;6.80;99.90;;;;;;4982231;28;20413;-72
2021/12/24 01:42:40;;;;;;;36.45;10.82;;;6.90;99.90;;;;;;4967305;28;20047;-72
2021/12/24 01:44:08;;;;;;;46.08;10.88;;;7.00;99.90;;;;;;4980838;28;20686;-73
2021/12/24 01:46:36;;;;;;;41.47;11.32;;;7.00;99.90;;;;;;4981917;28;20686;-72
2021/12/24 01:49:05;;;;;;;48.92;12.52;;;7.00;99.90;;;;;;4949735;28;20066;-72
2021/12/24 01:51:33;;;;;;;39.92;13.23;;;7.00;99.90;;;;;;4966156;28;20050;-72
2021/12/24 01:54:01;;;;;;;43.08;12.75;;;7.00;99.90;;;;;;5002523;28;20483;-71
2021/12/24 01:56:29;;;;;;;43.15;13.82;;;7.00;99.90;;;;;;4985868;28;20043;-71
2021/12/24 01:58:57;;;;;;;40.80;12.60;;;7.00;99.90;;;;;;4994371;28;20486;-71
2021/12/24 02:01:27;;;;;;;37.83;12.57;;;6.90;99.90;;;;;;4990036;28;20058;-72
2021/12/24 02:03:55;;;;;;;37.85;11.82;;;6.90;99.90;;;;;;5021583;28;20045;-71
2021/12/24 02:06:23;;;;;;;36.15;12.05;;;6.80;99.90;;;;;;4988636;28;20054;-72
2021/12/24 02:08:50;;;;;;;35.97;12.02;;;6.70;99.90;;;;;;4989307;28;20054;-72
2021/12/24 02:11:18;;;;;;;38.90;13.90;;;6.60;99.90;;;;;;4990210;28;20050;-72
2021/12/24 02:13:46;;;;;;;48.35;14.00;;;6.60;99.90;;;;;;4989370;28;20046;-71
2021/12/24 02:16:37;;;;;;;44.63;13.88;;;6.50;99.90;;;;;;4988863;28;20038;-70
2021/12/24 02:30:11;;;;;;;43.75;14.55;;;6.60;99.90;;;;;;4988303;28;20053;-70
2021/12/24 02:32:43;;;;;;;43.85;14.88;;;6.60;99.90;;;;;;4988665;28;20063;-72
2021/12/24 02:35:11;;;;;;;49.33;15.27;;;6.60;99.90;;;;;;4984949;28;20058;-71
2021/12/24 02:37:38;;;;;;;48.45;15.52;;;6.60;99.90;;;;;;4984963;28;20050;-72
2021/12/24 02:40:07;;;;;;;42.92;13.05;;;6.60;99.90;;;;;;4970394;28;20519;-70
2021/12/24 02:42:35;;;;;;;49.15;14.95;;;6.60;99.90;;;;;;4971820;28;20046;-72
2021/12/24 02:45:04;;;;;;;51.08;14.60;;;6.60;99.90;;;;;;4989247;28;20081;-72
2021/12/24 02:55:32;;;;;;;51.78;15.95;;;6.90;99.90;;;;;;4969773;28;20570;-73
2021/12/24 02:58:00;;;;;;;52.28;16.00;;;7.10;99.90;;;;;;4985846;28;20054;-74
2021/12/24 03:00:29;;;;;;;41.42;15.10;;;7.20;99.90;;;;;;4988698;28;20506;-71
2021/12/24 03:02:57;;;;;;;48.65;15.40;;;7.30;99.90;;;;;;5020992;28;20061;-71
2021/12/24 03:05:25;;;;;;;52.03;15.70;;;7.40;99.90;;;;;;4987856;28;20038;-71
2021/12/24 03:07:53;;;;;;;42.72;14.35;;;7.40;99.90;;;;;;5004799;28;20046;-70
2021/12/24 03:10:22;;;;;;;49.47;14.65;;;7.50;99.90;;;;;;4988401;28;20065;-73
2021/12/24 03:12:52;;;;;;;50.15;14.38;;;7.60;99.90;;;;;;5004856;28;20043;-70
2021/12/24 03:15:23;;;;;;;43.00;13.68;;;7.60;99.90;;;;;;4988384;28;20054;-71
2021/12/24 03:17:55;;;;;;;40.78;13.30;;;7.60;99.90;;;;;;4987751;28;20042;-69
2021/12/24 03:20:23;;;;;;;38.20;12.18;;;7.60;99.90;;;;;;4988373;28;20057;-73
2021/12/24 03:25:38;;;;;;;40.65;11.20;;;7.60;99.90;;;;;;5020747;28;20062;-73
2021/12/24 03:28:06;;;;;;;37.33;10.73;;;7.60;99.90;;;;;;4989481;28;20530;-71
2021/12/24 03:30:34;;;;;;;36.25;10.60;;;7.60;99.90;;;;;;4988137;28;20053;-71
2021/12/24 03:33:01;;;;;;;33.75;10.25;;;7.60;99.90;;;;;;4988009;28;20820;-70
2021/12/24 03:35:29;;;;;;;43.58;11.85;;;7.60;99.90;;;;;;4989402;28;20603;-71
2021/12/24 03:37:58;;;;;;;37.45;10.40;;;7.50;99.90;;;;;;4987766;28;20057;-72
2021/12/24 03:40:25;;;;;;;40.50;11.43;;;7.50;99.90;;;;;;4987933;28;20718;-72
2021/12/24 03:42:53;;;;;;;49.42;12.07;;;7.50;99.90;;;;;;4987828;28;20050;-73
2021/12/24 03:45:29;;;;;;;47.00;10.85;;;7.40;99.90;;;;;;4987236;28;20054;-74
2021/12/24 03:48:02;;;;;;;41.05;10.00;;;7.40;99.90;;;;;;4988199;28;20050;-72
2021/12/24 03:56:23;;;;;;;48.88;10.00;;;7.40;99.90;;;;;;4986194;28;20552;-72
2021/12/24 03:58:50;;;;;;;39.95;9.43;;;7.40;99.90;;;;;;4973848;28;20069;-73
2021/12/24 04:01:37;;;;;;;50.70;8.77;;;7.40;99.90;;;;;;4988419;28;20054;-74
2021/12/24 04:04:25;;;;;;;43.08;7.57;;;7.40;99.90;;;;;;4988530;28;20062;-72
2021/12/24 04:07:14;;;;;;;32.53;7.47;;;7.40;99.90;;;;;;4994166;28;20058;-72
2021/12/24 04:13:01;;;;;;;35.83;7.10;;;7.40;99.90;;;;;;4978327;28;20074;-71
2021/12/24 04:15:28;;;;;;;48.55;7.63;;;7.40;99.90;;;;;;4983001;28;20047;-71
2021/12/24 04:17:56;;;;;;;48.83;7.78;;;7.40;99.90;;;;;;4971850;28;20061;-71
2021/12/24 04:25:56;;;;;;;38.67;10.05;;;7.50;99.90;;;;;;4987301;28;20658;-71
2021/12/24 04:28:25;;;;;;;48.88;11.75;;;7.40;99.90;;;;;;5019657;28;20126;-71
2021/12/24 04:30:53;;;;;;;49.55;12.88;;;7.50;99.90;;;;;;4986756;28;20049;-72
2021/12/24 04:33:30;;;;;;;56.00;13.32;;;7.50;99.90;;;;;;4987214;28;20054;-71
2021/12/24 04:36:09;;;;;;;62.38;13.27;;;7.40;99.90;;;;;;4970695;28;20410;-71
2021/12/24 04:39:07;;;;;;;48.75;14.63;;;7.40;99.90;;;;;;5084088;27;20475;-72
2021/12/24 05:03:33;;;;;;;69.38;15.82;;;7.90;99.90;;;;;;5082472;28;20039;-74
2021/12/24 05:06:41;;;;;;;55.53;15.98;;;8.00;99.90;;;;;;5082275;28;20052;-71
2021/12/24 05:09:00;;;;;;;61.30;15.63;;;8.00;99.90;;;;;;5080621;28;20055;-73
2021/12/24 05:11:27;;;;;;;53.47;15.27;;;8.10;99.90;;;;;;5083649;28;20064;-71
2021/12/24 05:13:55;;;;;;;65.05;16.67;;;8.10;99.90;;;;;;5082717;28;20504;-70
2021/12/24 05:17:19;;;;;;;49.30;14.55;;;8.20;99.90;;;;;;5066356;28;20053;-75
2021/12/24 05:23:18;;;;;;;45.15;13.55;;;8.00;99.90;;;;;;5082055;28;20048;-74
2021/12/24 05:25:47;;;;;;;41.00;13.43;;;7.90;99.90;;;;;;5083035;28;20044;-73
2021/12/24 05:28:16;;;;;;;59.15;13.98;;;7.80;99.90;;;;;;5081575;28;20048;-72
2021/12/24 05:30:44;;;;;;;55.65;15.70;;;7.70;99.90;;;;;;5081917;28;20044;-71
2021/12/24 05:33:14;;;;;;;53.10;15.32;;;7.60;99.90;;;;;;5081467;28;20067;-72
2021/12/24 05:35:43;;;;;;;71.95;16.95;;;7.50;99.90;;;;;;5081715;28;20044;-74
2021/12/24 05:38:13;;;;;;;59.70;17.83;;;7.40;99.90;;;;;;5081521;28;20048;-74
2021/12/24 05:40:43;;;;;;;64.90;18.42;;;7.40;99.90;;;;;;5081371;28;20439;-73
2021/12/24 05:43:11;;;;;;;70.32;18.65;;;7.40;99.90;;;;;;5082032;28;20071;-74
2021/12/24 05:45:39;;;;;;;68.00;19.35;;;7.40;99.90;;;;;;5081396;28;20388;-72
2021/12/24 05:48:20;;;;;;;64.28;17.40;;;7.30;99.90;;;;;;5060532;28;20060;-71
2021/12/24 05:50:50;;;;;;;63.00;16.77;;;7.30;99.90;;;;;;5067150;28;20041;-70
2021/12/24 05:53:38;;;;;;;71.00;20.27;;;7.20;99.90;;;;;;5068843;28;20495;-71
2021/12/24 05:56:12;;;;;;;61.65;18.08;;;7.20;99.90;;;;;;5068392;28;20774;-70
2021/12/24 05:58:43;;;;;;;71.28;19.02;;;7.20;99.90;;;;;;5066824;28;20049;-70
2021/12/24 06:01:10;;;;;;;;;;;7.30;99.90;;;;;;5069263;28;20049;-70
2021/12/24 06:03:43;;;;;;;73.75;18.90;;;7.30;99.90;;;;;;5050795;28;19924;-70
2021/12/24 06:06:11;;;;;;;69.05;18.50;;;7.30;99.90;;;;;;5066422;28;20048;-71
2021/12/24 06:08:39;;;;;;;70.55;19.92;;;7.30;99.90;;;;;;5068389;28;20044;-71
2021/12/24 06:11:06;;;;;;;78.18;21.23;;;7.40;99.90;;;;;;5068504;28;20071;-71
2021/12/24 06:13:36;;;;;;;77.88;21.83;;;7.40;99.90;;;;;;5068433;28;20051;-71
2021/12/24 06:16:06;;;;;;;87.80;22.73;;;7.40;99.90;;;;;;5067264;28;20056;-73
2021/12/24 06:18:37;;;;;;;62.08;19.73;;;7.50;99.90;;;;;;5068393;28;20703;-73
2021/12/24 06:21:05;;;;;;;77.68;19.63;;;7.50;99.90;;;;;;5067003;28;20496;-74
2021/12/24 06:23:33;;;;;;;;;;;7.50;99.90;;;;;;5065708;28;20053;-72
2021/12/24 06:26:03;;;;;;;79.28;20.48;;;7.50;99.90;;;;;;5067881;28;19928;-72
2021/12/24 06:28:36;;;;;;;66.57;18.45;;;7.50;99.90;;;;;;5067981;28;20492;-73
2021/12/24 06:31:04;;;;;;;70.22;19.88;;;7.50;99.90;;;;;;5063943;28;20044;-71
2021/12/24 06:33:32;;;;;;;69.10;19.15;;;7.50;99.90;;;;;;5059146;28;20067;-73
2021/12/24 06:36:00;;;;;;;64.55;20.80;;;7.60;99.90;;;;;;5067563;28;20055;-75
2021/12/24 06:38:28;;;;;;;78.72;20.60;;;7.60;99.90;;;;;;5066598;28;20052;-73
2021/12/24 06:40:55;;;;;;;73.93;21.23;;;7.50;99.90;;;;;;5067442;28;20044;-71
2021/12/24 06:43:23;;;;;;;84.88;20.50;;;7.60;99.90;;;;;;5066265;28;20064;-74
2021/12/24 06:45:51;;;;;;;70.10;21.13;;;7.50;99.90;;;;;;5066480;28;20063;-71
2021/12/24 06:48:19;;;;;;;73.13;21.00;;;7.50;99.90;;;;;;5065729;28;20045;-73
2021/12/24 06:50:50;;;;;;;68.60;19.13;;;7.50;99.90;;;;;;5065960;28;20049;-71
2021/12/24 06:53:18;;;;;;;74.43;20.83;;;7.50;99.90;;;;;;5065296;28;20040;-72
2021/12/24 06:55:49;;;;;;;79.72;24.00;;;7.40;99.90;;;;;;5054182;28;20052;-71
2021/12/24 06:58:17;;;;;;;78.72;23.42;;;7.40;99.90;;;;;;5063359;28;20484;-72
2021/12/24 07:00:46;;;;;;;75.22;22.77;;;7.40;99.90;;;;;;5064446;28;20050;-70
2021/12/24 07:03:15;;;;;;;84.07;22.02;;;7.30;99.90;;;;;;5062320;28;20536;-70
2021/12/24 07:05:42;;;;;;;78.63;23.75;;;7.20;99.90;;;;;;5065533;28;20040;-72
2021/12/24 07:08:10;;;;;;;90.72;23.17;;;7.20;99.90;;;;;;5058786;28;20116;-72
2021/12/24 07:10:38;;;;;;;81.85;22.92;;;7.10;99.90;;;;;;5046711;28;20044;-72
2021/12/24 07:13:06;;;;;;;90.43;23.73;;;7.10;99.90;;;;;;5048066;28;20490;-70
2021/12/24 07:15:33;;;;;;;81.32;23.77;;;7.10;99.90;;;;;;5066704;28;20068;-73
2021/12/24 07:18:01;;;;;;;74.97;22.90;;;7.20;99.90;;;;;;5045072;28;207227;-70
2021/12/24 07:20:29;;;;;;;76.78;20.98;;;7.20;99.90;;;;;;5008202;28;20042;-69
2021/12/24 07:22:57;;;;;;;83.28;22.08;;;7.30;99.90;;;;;;5016595;28;20053;-71
2021/12/24 07:25:25;;;;;;;96.70;22.88;;;7.30;99.90;;;;;;5012539;28;20524;-70
2021/12/24 07:27:54;;;;;;;71.70;18.55;;;7.30;99.90;;;;;;5017425;28;20049;-70
2021/12/24 07:30:22;;;;;;;74.63;20.33;;;7.30;99.90;;;;;;5025206;28;20524;-71
2021/12/24 07:32:50;;;;;;;73.07;20.23;;;7.30;99.90;;;;;;5025139;28;20589;-74
2021/12/24 07:35:19;;;;;;;73.38;20.17;;;7.40;99.90;;;;;;5022664;28;20501;-71
2021/12/24 07:37:47;;;;;;;78.15;20.70;;;7.40;99.90;;;;;;5024012;28;20920;-74
2021/12/24 07:40:18;;;;;;;84.57;22.35;;;7.40;99.90;;;;;;5026396;28;20050;-75
2021/12/24 07:42:47;;;;;;;91.50;26.00;;;7.40;99.90;;;;;;5026602;28;20049;-73
2021/12/24 07:45:17;;;;;;;80.63;23.63;;;7.50;99.90;;;;;;5026726;28;20475;-76
2021/12/24 07:47:55;;;;;;;85.93;24.58;;;7.50;99.90;;;;;;5026132;28;20512;-73
2021/12/24 07:52:57;;;;;;;74.32;21.38;;;7.50;99.90;;;;;;5026652;28;20046;-73
2021/12/24 07:55:25;;;;;;;;;;;7.40;99.90;;;;;;5027390;28;20402;-72
2021/12/24 07:57:53;;;;;;;83.40;22.10;;;7.40;99.90;;;;;;5025064;28;20359;-73
2021/12/24 08:00:23;;;;;;;81.32;20.65;;;7.30;99.90;;;;;;5026094;28;20049;-71
2021/12/24 08:02:52;;;;;;;72.20;19.80;;;7.30;99.90;;;;;;5026096;28;20049;-72
2021/12/24 08:05:23;;;;;;;67.57;20.02;;;7.20;99.90;;;;;;5024908;28;20049;-74
2021/12/24 08:07:52;;;;;;;71.93;19.90;;;7.20;99.90;;;;;;5025561;28;20501;-74
2021/12/24 08:10:25;;;;;;;78.88;21.92;;;7.10;99.90;;;;;;5023811;28;20061;-78
2021/12/24 08:12:53;;;;;;;86.00;22.75;;;7.10;99.90;;;;;;5024385;28;20053;-76
2021/12/24 08:15:22;;;;;;;80.53;20.95;;;7.00;99.90;;;;;;5024301;28;20052;-76
2021/12/24 08:17:49;;;;;;;84.57;21.63;;;7.10;99.90;;;;;;5025487;28;20049;-76
2021/12/24 08:20:22;;;;;;;85.40;23.45;;;7.10;99.90;;;;;;5024337;28;20056;-79
2021/12/24 08:22:53;;;;;;;83.75;25.27;;;7.10;99.90;;;;;;5003003;28;20069;-78
2021/12/24 08:25:22;;;;;;;85.13;23.35;;;7.20;99.90;;;;;;5021246;28;20486;-77
2021/12/24 08:27:51;;;;;;;93.03;23.80;;;7.20;99.90;;;;;;5021962;28;20049;-77
2021/12/24 08:30:18;;;;;;;;;;;7.30;99.90;;;;;;5023339;28;20553;-75
2021/12/24 08:32:46;;;;;;;99.13;24.55;;;7.30;99.90;;;;;;5019644;28;20420;-74
2021/12/24 08:35:16;;;;;;;77.38;22.55;;;7.30;99.90;;;;;;5007480;28;20603;-75
2021/12/24 08:37:44;;;;;;;72.65;20.42;;;7.40;99.90;;;;;;5024385;28;20045;-76
2021/12/24 08:40:13;;;;;;;94.53;24.63;;;7.40;99.90;;;;;;5020932;28;20071;-75
2021/12/24 08:42:41;;;;;;;89.10;26.92;;;7.50;99.90;;;;;;5018690;28;20068;-71
2021/12/24 08:45:10;;;;;;;79.13;24.67;;;7.50;99.90;;;;;;5014413;28;20422;-76
2021/12/24 08:47:38;;;;;;;66.68;20.70;;;7.50;99.90;;;;;;5023071;28;20053;-82
2021/12/24 08:50:07;;;;;;;;;;;7.60;99.90;;;;;;5016068;28;20049;-78
2021/12/24 08:52:39;;;;;;;94.43;25.67;;;7.60;99.90;;;;;;5014977;28;19941;-82
2021/12/24 08:55:07;;;;;;;97.68;26.85;;;7.70;99.90;;;;;;5005812;28;20050;-86
2021/12/24 08:57:35;;;;;;;82.90;27.17;;;7.70;99.90;;;;;;5005383;28;20550;-79
2021/12/24 09:00:04;;;;;;;86.20;27.58;;;7.80;99.90;;;;;;5019771;28;20045;-77
2021/12/24 09:02:32;;;;;;;94.57;28.67;;;7.80;99.90;;;;;;5025264;28;20068;-87
2021/12/24 09:05:00;;;;;;;87.28;28.02;;;7.90;99.90;;;;;;5023682;28;20490;-82
2021/12/24 09:07:27;;;;;;;88.32;27.40;;;7.90;99.90;;;;;;5024029;28;20557;-76
2021/12/24 09:09:55;;;;;;;89.65;28.35;;;7.90;99.90;;;;;;5022867;28;20053;-78
2021/12/24 09:12:24;;;;;;;;;;;7.90;99.90;;;;;;5025307;28;20071;-75
2021/12/24 09:14:53;;;;;;;92.95;27.33;;;7.90;99.90;;;;;;5025824;28;19925;-86
2021/12/24 09:17:22;;;;;;;76.45;26.10;;;8.00;99.90;;;;;;5023233;28;20046;-76
2021/12/24 09:19:53;;;;;;;78.65;26.05;;;8.00;99.90;;;;;;5025190;28;20065;-83
2021/12/24 09:22:28;;;;;;;84.15;26.85;;;8.10;99.90;;;;;;5021149;28;20485;-71
2021/12/24 09:24:58;;;;;;;85.53;27.08;;;8.10;99.90;;;;;;5019574;28;20657;-70
2021/12/24 09:27:29;;;;;;;69.70;25.65;;;8.10;99.90;;;;;;5015989;28;20052;-73
2021/12/24 09:29:59;;;;;;;81.22;26.98;;;8.10;99.90;;;;;;5018746;28;20064;-75
2021/12/24 09:32:29;;;;;;;92.15;27.83;;;8.20;99.90;;;;;;5027297;28;20052;-75
2021/12/24 09:34:58;;;;;;;78.25;25.75;;;8.20;99.90;;;;;;5026493;28;20452;-74
2021/12/24 09:37:26;;;;;;;86.93;25.73;;;8.20;99.90;;;;;;5019672;28;20049;-71
2021/12/24 09:39:54;;;;;;;80.22;26.35;;;8.30;99.90;;;;;;5009514;28;20060;-72
2021/12/24 09:42:27;;;;;;;82.00;26.17;;;8.30;99.90;;;;;;5008312;28;20057;-73
2021/12/24 09:44:54;;;;;;;74.05;21.90;;;8.40;99.90;;;;;;5008694;28;20046;-71
2021/12/24 09:47:24;;;;;;;76.10;26.17;;;8.40;99.90;;;;;;5007247;28;20049;-75
2021/12/24 09:49:53;;;;;;;84.43;25.13;;;8.40;99.90;;;;;;5007223;28;20046;-73
2021/12/24 09:52:21;;;;;;;72.47;25.35;;;8.50;99.90;;;;;;5008808;28;20483;-72
2021/12/24 09:54:50;;;;;;;76.00;25.88;;;8.50;99.90;;;;;;5008098;28;20050;-74
2021/12/24 09:57:18;;;;;;;83.78;25.45;;;8.50;99.90;;;;;;5008563;28;20053;-75
2021/12/24 09:59:46;;;;;;;;;;;8.70;99.90;;;;;;5017715;28;20049;-73
2021/12/24 10:02:19;;;;;;;61.22;20.35;;;8.70;99.90;;;;;;5058372;28;19925;-73
2021/12/24 10:04:47;;;;;;;82.07;25.02;;;8.80;99.90;;;;;;5021569;28;20050;-75
2021/12/24 10:07:17;;;;;;;88.28;24.58;;;8.80;99.90;;;;;;5006580;28;20058;-72
2021/12/24 10:09:49;;;;;;;85.03;22.92;;;8.90;99.90;;;;;;5005987;28;20541;-72
2021/12/24 10:12:18;;;;;;;73.07;21.17;;;9.00;99.90;;;;;;5006851;28;20050;-72
2021/12/24 10:14:52;;;;;;;90.70;22.42;;;9.00;99.90;;;;;;5007215;28;20054;-75
2021/12/24 10:17:24;;;;;;;79.88;20.67;;;9.00;99.90;;;;;;5008615;28;20556;-71
2021/12/24 10:19:54;;;;;;;67.85;20.30;;;9.10;99.90;;;;;;5008080;28;20065;-72
2021/12/24 10:22:52;;;;;;;73.55;20.80;;;9.10;99.90;;;;;;5008507;28;20053;-73
2021/12/24 10:25:30;;;;;;;79.15;21.15;;;9.30;99.90;;;;;;5006343;28;20056;-75
2021/12/24 10:28:09;;;;;;;60.28;18.50;;;9.40;99.90;;;;;;5008262;28;20042;-75
2021/12/24 10:30:37;;;;;;;62.88;18.75;;;9.50;99.90;;;;;;5004254;28;20697;-75
2021/12/24 10:33:10;;;;;;;60.72;17.80;;;9.60;99.90;;;;;;5008147;28;20406;-75
2021/12/24 10:35:38;;;;;;;61.72;17.40;;;9.70;99.90;;;;;;5007737;28;20060;-73
2021/12/24 10:38:14;;;;;;;65.93;18.90;;;9.70;99.90;;;;;;5006727;28;20064;-73
2021/12/24 10:41:04;;;;;;;70.22;19.85;;;9.70;99.90;;;;;;5007551;28;20072;-75
2021/12/24 10:43:34;;;;;;;61.35;19.55;;;9.70;99.90;;;;;;5026593;28;20041;-73
2021/12/24 10:46:23;;;;;;;70.28;21.00;;;9.70;99.90;;;;;;5025219;28;20053;-74
2021/12/24 10:49:17;;;;;;;59.47;18.95;;;9.80;99.90;;;;;;5016401;28;20137;-75
2021/12/24 10:52:10;;;;;;;58.13;17.80;;;9.80;99.90;;;;;;5010957;28;20417;-72
2021/12/24 10:54:59;;;;;;;63.88;16.70;;;9.80;99.90;;;;;;5018423;28;20060;-72
2021/12/24 10:57:30;;;;;;;66.28;16.15;;;9.90;99.90;;;;;;5026591;28;20469;-72
2021/12/24 11:00:18;;;;;;;63.55;16.80;;;9.90;99.90;;;;;;5022993;28;20494;-72
2021/12/24 11:02:53;;;;;;;53.05;16.25;;;10.00;99.90;;;;;;5021579;28;20068;-74
2021/12/24 11:05:39;;;;;;;50.00;15.60;;;10.10;99.90;;;;;;5026543;28;20056;-74
2021/12/24 11:08:11;;;;;;;61.08;14.07;;;10.20;99.90;;;;;;5021240;28;20057;-72
2021/12/24 11:10:46;;;;;;;52.28;14.40;;;10.20;99.90;;;;;;5025098;28;20060;-71
2021/12/24 11:13:21;;;;;;;56.22;15.20;;;10.20;99.90;;;;;;5026773;28;20049;-74
2021/12/24 11:15:53;;;;;;;54.03;14.63;;;10.30;99.90;;;;;;5026984;28;20053;-74
2021/12/24 11:18:34;;;;;;;48.08;15.05;;;10.40;99.90;;;;;;5009558;28;20049;-83
2021/12/24 11:21:17;;;;;;;51.80;14.35;;;10.40;99.90;;;;;;5011126;28;20054;-73
2021/12/24 11:23:47;;;;;;;45.92;14.70;;;10.50;99.90;;;;;;5026185;28;20046;-71
2021/12/24 11:26:30;;;;;;;54.55;15.82;;;10.60;99.90;;;;;;5006725;28;20033;-72
2021/12/24 11:28:58;;;;;;;50.20;14.63;;;10.60;99.90;;;;;;5006757;28;20065;-79
2021/12/24 11:31:32;;;;;;;42.60;13.25;;;10.70;99.90;;;;;;5007697;28;20045;-71
2021/12/24 11:34:01;;;;;;;41.08;12.38;;;10.70;99.90;;;;;;5026670;28;20060;-71
2021/12/24 11:36:30;;;;;;;;;;;10.80;99.90;;;;;;5026727;28;20056;-71
2021/12/24 11:39:06;;;;;;;36.55;9.77;;;10.90;99.90;;;;;;5025171;28;19932;-72
2021/12/24 11:41:36;;;;;;;26.13;8.05;;;10.90;99.90;;;;;;5026511;28;20057;-75
2021/12/24 11:44:07;;;;;;;32.10;8.07;;;11.00;99.90;;;;;;5026209;28;20052;-71
2021/12/24 11:46:41;;;;;;;27.88;7.63;;;11.00;99.90;;;;;;5026083;28;20052;-73
2021/12/24 11:49:09;;;;;;;26.15;7.65;;;11.10;99.90;;;;;;5026445;28;20052;-72
2021/12/24 11:51:40;;;;;;;;;;;11.10;99.90;;;;;;5026929;28;20493;-73
2021/12/24 11:54:10;;;;;;;29.65;7.95;;;11.20;99.90;;;;;;5025565;28;19925;-72
2021/12/24 11:56:43;;;;;;;32.10;7.47;;;11.20;99.90;;;;;;5024314;28;20069;-71
2021/12/24 11:59:11;;;;;;;21.38;7.40;;;11.20;99.90;;;;;;5012945;28;20506;-70
2021/12/24 12:01:42;;;;;;;23.42;7.70;;;11.20;99.90;;;;;;5020638;28;20046;-74
2021/12/24 12:04:12;;;;;;;28.05;8.48;;;11.10;99.90;;;;;;5006282;28;20432;-72
2021/12/24 12:06:40;;;;;;;29.95;7.50;;;11.10;99.90;;;;;;5005234;28;20394;-73
2021/12/24 12:09:12;;;;;;;27.88;8.13;;;11.10;99.90;;;;;;4988748;28;20050;-71
2021/12/24 12:11:43;;;;;;;24.33;7.15;;;11.10;99.90;;;;;;5006595;28;20057;-74
2021/12/24 12:14:11;;;;;;;26.77;7.53;;;11.00;99.90;;;;;;5006180;28;20054;-73
2021/12/24 12:16:38;;;;;;;21.40;7.30;;;11.00;99.90;;;;;;5006141;28;20058;-74
2021/12/24 12:19:16;;;;;;;28.38;6.43;;;11.00;99.90;;;;;;5013000;28;20042;-70
2021/12/24 12:22:30;;;;;;;24.10;6.25;;;10.90;99.90;;;;;;5026290;28;20060;-71
2021/12/24 12:25:09;;;;;;;21.48;6.00;;;10.90;99.90;;;;;;5024770;28;20059;-71
2021/12/24 12:27:55;;;;;;;24.40;6.22;;;10.70;99.90;;;;;;5025209;28;20041;-71
2021/12/24 12:30:39;;;;;;;24.73;6.03;;;10.70;99.90;;;;;;5025604;28;20058;-74
2021/12/24 12:33:13;;;;;;;28.88;6.43;;;10.70;99.90;;;;;;5004986;28;20693;-71
2021/12/24 12:35:57;;;;;;;21.27;6.15;;;10.70;99.90;;;;;;5011842;28;20046;-71
2021/12/24 12:38:41;;;;;;;20.15;5.20;;;10.60;99.90;;;;;;5039732;28;20409;-71
2021/12/24 12:41:32;;;;;;;22.23;5.75;;;10.60;99.90;;;;;;5025271;28;20049;-70
2021/12/24 12:44:10;;;;;;;31.02;6.78;;;10.60;99.90;;;;;;5022927;28;20053;-71
2021/12/24 12:46:41;;;;;;;28.60;6.93;;;10.70;99.90;;;;;;5018463;28;20533;-72
2021/12/24 12:49:14;;;;;;;29.33;10.10;;;10.70;99.90;;;;;;5022335;28;20063;-71
2021/12/24 12:51:54;;;;;;;29.23;9.25;;;10.80;99.90;;;;;;5019704;28;20053;-72
2021/12/24 12:54:29;;;;;;;27.75;7.07;;;11.00;99.90;;;;;;5013374;28;20046;-74
2021/12/24 12:57:12;;;;;;;23.45;5.85;;;11.30;99.90;;;;;;5004915;28;20049;-71
2021/12/24 13:00:19;;;;;;;26.48;6.68;;;11.60;99.90;;;;;;5008155;28;20045;-72
2021/12/24 13:05:53;;;;;;;28.75;6.32;;;12.20;99.90;;;;;;5028278;28;20444;-73
2021/12/24 13:08:24;;;;;;;23.80;6.18;;;12.30;99.90;;;;;;5044279;28;20052;-73
2021/12/24 13:11:10;;;;;;;29.52;6.90;;;12.30;99.90;;;;;;5026790;28;20034;-73
2021/12/24 13:13:51;;;;;;;24.02;6.78;;;12.20;99.90;;;;;;5007946;28;20061;-73
2021/12/24 13:16:21;;;;;;;22.33;6.00;;;12.20;99.90;;;;;;5024613;28;20045;-74
2021/12/24 13:19:21;;;;;;;21.40;5.07;;;12.10;99.90;;;;;;5027514;28;20050;-75
2021/12/24 13:24:55;;;;;;;16.45;4.65;;;11.90;99.90;;;;;;5022005;28;20586;-75
2021/12/24 13:27:27;;;;;;;20.67;4.35;;;11.70;99.90;;;;;;5013300;28;20049;-74
2021/12/24 13:30:15;;;;;;;22.15;4.75;;;11.60;99.90;;;;;;5015197;28;20568;-73
2021/12/24 13:32:47;;;;;;;20.75;5.88;;;11.50;99.90;;;;;;5022721;28;20046;-73
2021/12/24 13:35:18;;;;;;;29.27;6.05;;;11.30;99.90;;;;;;5024270;28;20060;-72
2021/12/24 13:37:47;;;;;;;23.25;4.53;;;11.20;99.90;;;;;;5024642;28;20042;-72
2021/12/24 13:40:24;;;;;;;23.80;5.90;;;11.00;99.90;;;;;;5027756;28;20544;-72
2021/12/24 13:43:07;;;;;;;27.95;5.45;;;11.00;99.90;;;;;;5028000;28;20508;-72
2021/12/24 13:45:37;;;;;;;23.35;5.75;;;10.80;99.90;;;;;;5038511;28;20049;-72
2021/12/24 13:48:13;;;;;;;22.73;5.55;;;10.70;99.90;;;;;;5041518;28;20069;-72
2021/12/24 13:56:45;;;;;;;21.52;5.95;;;10.70;99.90;;;;;;5022591;28;20050;-71
2021/12/24 13:59:19;;;;;;;19.80;6.83;;;10.70;99.90;;;;;;5038094;28;20473;-71
2021/12/24 14:01:46;;;;;;;23.50;6.15;;;10.70;99.90;;;;;;5013800;28;21138;-71
2021/12/24 14:04:17;;;;;;;27.70;7.57;;;10.70;99.90;;;;;;5022693;28;20038;-71
2021/12/24 14:06:57;;;;;;;24.88;6.95;;;10.70;99.90;;;;;;5026547;28;20046;-72
2021/12/24 14:09:32;;;;;;;31.67;5.93;;;10.70;99.90;;;;;;5027179;28;20060;-72
2021/12/24 14:12:03;;;;;;;28.00;5.70;;;10.70;99.90;;;;;;5022862;28;20050;-72
2021/12/24 14:14:50;;;;;;;23.13;5.57;;;10.60;99.90;;;;;;5026457;28;20048;-72
2021/12/24 14:17:47;;;;;;;28.92;7.10;;;10.60;99.90;;;;;;5005988;28;20053;-71
2021/12/24 14:20:27;;;;;;;30.92;6.53;;;10.60;99.90;;;;;;5027311;28;20053;-72
2021/12/24 14:22:55;;;;;;;31.85;5.28;;;10.60;99.90;;;;;;5023525;28;20052;-85
2021/12/24 14:25:23;;;;;;;24.52;5.60;;;10.60;99.90;;;;;;5041829;28;20075;-74
2021/12/24 14:27:51;;;;;;;19.15;4.50;;;10.50;99.90;;;;;;5041675;28;20466;-73
2021/12/24 14:30:21;;;;;;;17.23;4.97;;;10.50;99.90;;;;;;5020083;28;20046;-73
2021/12/24 14:32:50;;;;;;;24.08;6.82;;;10.40;99.90;;;;;;5013577;28;20042;-73
2021/12/24 14:35:24;;;;;;;25.45;5.63;;;10.40;99.90;;;;;;5038563;28;20057;-74
2021/12/24 14:38:01;;;;;;;29.95;6.43;;;10.40;99.90;;;;;;5024885;28;20057;-74
2021/12/24 14:40:31;;;;;;;21.20;6.05;;;10.40;99.90;;;;;;5025112;28;20050;-74
2021/12/24 14:43:00;;;;;;;27.08;6.90;;;10.40;99.90;;;;;;5021151;28;20498;-74
2021/12/24 14:45:35;;;;;;;24.33;6.13;;;10.30;99.90;;;;;;5025923;28;20057;-77
2021/12/24 14:48:06;;;;;;;29.00;7.28;;;10.30;99.90;;;;;;5023953;28;20068;-78
2021/12/24 14:50:50;;;;;;;26.17;7.05;;;10.30;99.90;;;;;;5005221;28;20064;-79
2021/12/24 14:53:27;;;;;;;29.30;7.80;;;10.30;99.90;;;;;;5007365;28;20053;-78
2021/12/24 14:56:17;;;;;;;30.47;8.20;;;10.30;99.90;;;;;;5006288;28;20050;-75
2021/12/24 14:58:48;;;;;;;25.92;7.68;;;10.20;99.90;;;;;;5011691;28;20057;-76
2021/12/24 15:01:33;;;;;;;23.98;7.18;;;10.20;99.90;;;;;;5005470;28;20080;-76